Terminal Aerodrome Forecast
Issued by NWS

Home | Current Version | Previous Version | Text Only | Print | Product List | Glossary On
Versions: 1 2 3 4 5 6 7 8 9 10 11 12 13 14 15
578
FTUS43 KFGF 201734 AAC
TAFBJI
TAF AMD
KBJI 201734Z 2018/2118 17009KT P6SM OVC008
     FM201900 18010KT 5SM -RA BR OVC015
     FM202100 21011KT 2SM -RA BR OVC008
      TEMPO 2021/2023 1SM -SHRA BR OVC003
     FM202300 27013KT 4SM BR VCSH OVC003
     FM210100 29013KT P6SM BKN003
     FM211100 21005KT P6SM BKN008
     FM211400 19008KT P6SM BKN040
     FM211600 20010KT P6SM SCT150=

USA.gov is the U.S. government's official web portal to all federal, state and local government web resources and services.